createdAt,value
2019-04-04T00:03:45.745Z,50.44
2019-04-04T00:08:47.436Z,50.56
2019-04-04T00:13:48.998Z,50.58
2019-04-04T00:18:50.656Z,50.63
2019-04-04T00:23:52.350Z,50.57
2019-04-04T00:28:53.902Z,50.53
2019-04-04T00:33:55.907Z,50.56
2019-04-04T00:38:58.291Z,50.68
2019-04-04T00:43:59.972Z,50.84
2019-04-04T00:49:04.552Z,51.00
2019-04-04T00:54:05.268Z,51.09
2019-04-04T00:59:06.812Z,51.65
2019-04-04T01:04:08.496Z,52.19
2019-04-04T01:09:13.111Z,51.77
2019-04-04T01:14:13.559Z,51.67
2019-04-04T01:19:15.233Z,51.76
2019-04-04T01:24:16.921Z,52.13
2019-04-04T01:29:18.478Z,52.53
2019-04-04T01:34:20.939Z,52.99
2019-04-04T01:39:23.072Z,53.62
2019-04-04T01:44:24.675Z,53.36
2019-04-04T01:49:26.254Z,53.62
2019-04-04T01:54:27.812Z,53.85
2019-04-04T01:59:29.369Z,53.93
2019-04-04T02:04:30.923Z,54.10
2019-04-04T02:09:34.552Z,54.51
2019-04-04T02:14:36.226Z,54.62
2019-04-04T02:19:37.915Z,54.76
2019-04-04T02:24:39.457Z,54.80
2019-04-04T02:29:41.860Z,55.03
2019-04-04T02:34:44.018Z,55.02
2019-04-04T02:39:45.563Z,55.14
2019-04-04T02:44:47.226Z,55.24
2019-04-04T02:49:48.755Z,55.12
2019-04-04T02:54:50.292Z,55.04
2019-04-04T02:59:53.435Z,55.05
2019-04-04T03:04:55.344Z,55.13
2019-04-04T03:09:56.995Z,55.23
2019-04-04T03:14:58.663Z,55.55
2019-04-04T03:20:00.323Z,56.09
2019-04-04T03:25:01.980Z,56.18
2019-04-04T03:30:04.409Z,56.44
2019-04-04T03:35:06.312Z,56.63
2019-04-04T03:40:08.566Z,56.66
2019-04-04T03:45:10.315Z,56.37
2019-04-04T03:50:11.947Z,56.40
2019-04-04T03:55:13.557Z,56.41
2019-04-04T04:00:24.704Z,56.49
2019-04-04T04:05:34.217Z,56.56
2019-04-04T04:10:33.397Z,56.71
2019-04-04T04:15:35.356Z,56.90
2019-04-04T04:20:37.921Z,56.85
2019-04-04T04:25:42.283Z,56.92
2019-04-04T04:30:43.922Z,57.18
2019-04-04T04:35:45.491Z,57.12
2019-04-04T04:40:48.036Z,57.32
2019-04-04T04:45:49.780Z,57.59
2019-04-04T04:50:51.347Z,57.79
2019-04-04T04:55:52.917Z,57.94
2019-04-04T05:00:54.545Z,57.62
2019-04-04T05:05:56.080Z,57.82
2019-04-04T05:10:57.638Z,58.34
2019-04-04T05:15:59.184Z,58.18
2019-04-04T05:21:01.957Z,58.26
2019-04-04T05:26:04.157Z,58.62
2019-04-04T05:31:05.671Z,58.53
2019-04-04T05:36:07.336Z,58.36
2019-04-04T05:41:08.873Z,58.49
2019-04-04T05:46:10.520Z,58.49
2019-04-04T05:51:14.965Z,58.44
2019-04-04T05:56:15.869Z,58.50
2019-04-04T06:01:17.993Z,58.37
2019-04-04T06:06:19.520Z,58.27
2019-04-04T06:11:21.758Z,58.31
2019-04-04T06:16:23.372Z,58.44
2019-04-04T06:21:24.866Z,58.33
2019-04-04T06:26:26.544Z,58.43
2019-04-04T06:31:30.823Z,58.46
2019-04-04T06:36:31.747Z,58.63
2019-04-04T06:41:33.267Z,59.08
2019-04-04T06:46:34.792Z,59.22
2019-04-04T06:51:36.328Z,58.57
2019-04-04T06:56:37.848Z,59.22
2019-04-04T07:01:39.389Z,58.89
2019-04-04T07:06:42.043Z,58.99
2019-04-04T07:11:43.987Z,59.02
2019-04-04T07:16:45.590Z,58.94
2019-04-04T07:21:47.179Z,59.08
2019-04-04T07:26:48.709Z,59.18
2019-04-04T07:31:50.258Z,59.29
2019-04-04T07:36:51.926Z,59.23
2019-04-04T07:41:53.517Z,58.96
2019-04-04T07:46:55.045Z,59.17
2019-04-04T07:51:56.572Z,59.26
2019-04-04T07:56:58.185Z,59.25
2019-04-04T08:01:59.726Z,59.00
2019-04-04T08:07:01.363Z,58.69
2019-04-04T08:12:03.031Z,58.88
2019-04-04T08:17:04.559Z,58.62
2019-04-04T08:22:06.174Z,58.27
2019-04-04T08:27:07.852Z,58.04
2019-04-04T08:32:09.399Z,57.86
2019-04-04T08:37:10.950Z,57.55
2019-04-04T08:42:12.480Z,57.65
2019-04-04T08:47:14.011Z,57.46
2019-04-04T08:52:17.270Z,56.72
2019-04-04T08:57:19.018Z,56.73
2019-04-04T09:02:20.898Z,57.32
2019-04-04T09:07:22.455Z,57.52
2019-04-04T09:12:24.123Z,58.22
2019-04-04T09:17:25.666Z,58.07
2019-04-04T09:22:27.204Z,58.11
2019-04-04T09:27:28.762Z,58.15
2019-04-04T09:32:30.320Z,58.30
2019-04-04T09:37:31.861Z,58.20
2019-04-04T09:42:33.447Z,58.07
2019-04-04T09:47:35.027Z,57.96
2019-04-04T09:52:36.567Z,58.00
2019-04-04T09:57:38.109Z,57.91
2019-04-04T10:02:39.945Z,57.67
2019-04-04T10:07:41.660Z,57.46
2019-04-04T10:12:43.328Z,57.26
2019-04-04T10:17:44.953Z,57.04
2019-04-04T10:22:46.512Z,56.99
2019-04-04T10:27:48.072Z,57.43
2019-04-04T10:32:49.628Z,56.83
2019-04-04T10:37:51.159Z,56.63
2019-04-04T10:42:52.714Z,56.41
2019-04-04T10:47:54.255Z,56.16
2019-04-04T10:52:55.807Z,55.97
2019-04-04T10:57:57.440Z,55.76
2019-04-04T11:02:59.081Z,55.46
2019-04-04T11:08:00.629Z,55.21
2019-04-04T11:13:03.023Z,55.01
2019-04-04T11:18:04.738Z,54.82
2019-04-04T11:23:06.521Z,54.44
2019-04-04T11:28:08.170Z,53.96
2019-04-04T11:33:09.756Z,52.86
2019-04-04T11:38:11.319Z,50.20
2019-04-04T11:43:13.102Z,46.65
2019-04-04T11:48:14.677Z,43.09
2019-04-04T11:53:16.370Z,38.35
2019-04-04T11:58:18.163Z,40.94
2019-04-04T12:03:19.777Z,43.36
2019-04-04T12:08:21.463Z,43.57
2019-04-04T12:13:23.015Z,45.95
2019-04-04T12:18:24.616Z,46.53
2019-04-04T12:23:26.202Z,46.55
2019-04-04T12:28:27.764Z,46.35
2019-04-04T12:33:29.600Z,45.98
2019-04-04T12:38:31.179Z,45.24
2019-04-04T12:43:32.927Z,44.25
2019-04-04T12:48:34.566Z,44.02
2019-04-04T12:53:36.268Z,44.56
2019-04-04T12:58:37.915Z,44.89
2019-04-04T13:03:39.471Z,43.90
2019-04-04T13:08:41.070Z,43.43
2019-04-04T13:13:42.727Z,42.26
2019-04-04T13:18:44.441Z,41.27
2019-04-04T13:23:46.057Z,39.96
2019-04-04T13:28:47.646Z,39.63
2019-04-04T13:33:49.235Z,40.41
2019-04-04T13:38:50.885Z,41.32
2019-04-04T13:43:54.378Z,41.69
2019-04-04T13:48:56.064Z,42.15
2019-04-04T13:54:02.268Z,42.33
2019-04-04T13:59:05.949Z,41.33
2019-04-04T14:04:07.655Z,40.27
2019-04-04T14:09:12.084Z,39.02
2019-04-04T14:14:12.783Z,38.44
2019-04-04T14:19:14.517Z,38.95
2019-04-04T14:24:18.276Z,38.61
2019-04-04T14:29:27.229Z,38.56
2019-04-04T14:34:23.691Z,38.51
2019-04-04T14:39:28.740Z,39.02
2019-04-04T14:44:30.782Z,39.35
2019-04-04T14:49:32.388Z,39.65
2019-04-04T14:54:34.076Z,39.65
2019-04-04T14:59:35.818Z,39.12
2019-04-04T15:04:37.474Z,39.06
2019-04-04T15:09:39.279Z,38.78
2019-04-04T15:14:41.110Z,37.60
2019-04-04T15:19:42.767Z,37.28
2019-04-04T15:24:44.320Z,37.07
2019-04-04T15:29:45.853Z,37.16
2019-04-04T15:34:47.413Z,36.83
2019-04-04T15:39:48.986Z,36.69
2019-04-04T15:44:50.565Z,35.58
2019-04-04T15:49:52.373Z,35.59
2019-04-04T15:54:53.963Z,35.67
2019-04-04T15:59:55.640Z,37.22
2019-04-04T16:04:57.257Z,38.88
2019-04-04T16:09:59.011Z,39.47
2019-04-04T16:15:00.671Z,39.47
2019-04-04T16:20:02.464Z,39.52
2019-04-04T16:25:04.689Z,39.99
2019-04-04T16:30:08.002Z,40.32
2019-04-04T16:35:09.974Z,40.15
2019-04-04T16:40:11.853Z,40.21
2019-04-04T16:45:13.531Z,35.64
2019-04-04T16:50:15.072Z,35.64
2019-04-04T16:55:16.713Z,36.86
2019-04-04T17:00:20.831Z,36.69
2019-04-04T17:05:22.137Z,37.11
2019-04-04T17:10:23.872Z,37.78
2019-04-04T17:15:25.439Z,38.26
2019-04-04T17:20:26.980Z,38.79
2019-04-04T17:25:28.537Z,40.63
2019-04-04T17:30:30.133Z,40.63
2019-04-04T17:35:31.827Z,41.81
2019-04-04T17:40:33.548Z,42.27
2019-04-04T17:45:35.626Z,42.48
2019-04-04T17:50:37.897Z,42.65
2019-04-04T17:55:40.070Z,42.83
2019-04-04T18:00:41.969Z,42.97
2019-04-04T18:05:43.572Z,43.05
2019-04-04T18:10:45.205Z,43.24
2019-04-04T18:15:46.882Z,43.36
2019-04-04T18:20:48.576Z,43.47
2019-04-04T18:25:50.081Z,43.65
2019-04-04T18:30:51.629Z,43.71
2019-04-04T18:35:53.294Z,43.88
2019-04-04T18:40:54.832Z,43.83
2019-04-04T18:45:56.521Z,43.98
2019-04-04T18:50:58.225Z,44.46
2019-04-04T18:55:59.866Z,45.25
2019-04-04T19:01:01.648Z,45.21
2019-04-04T19:06:03.310Z,45.46
2019-04-04T19:11:04.991Z,46.25
2019-04-04T19:16:06.753Z,46.80
2019-04-04T19:21:08.397Z,47.35
2019-04-04T19:26:10.070Z,48.03
2019-04-04T19:31:11.721Z,48.42
2019-04-04T19:36:13.261Z,48.64
2019-04-04T19:41:14.815Z,48.76
2019-04-04T19:46:16.459Z,48.79
2019-04-04T19:51:17.999Z,49.09
2019-04-04T19:56:19.550Z,49.84
2019-04-04T20:01:21.192Z,50.21
2019-04-04T20:06:22.719Z,50.29
2019-04-04T20:11:24.263Z,50.45
2019-04-04T20:16:25.832Z,50.30
2019-04-04T20:21:27.387Z,50.60
2019-04-04T20:26:28.954Z,50.78
2019-04-04T20:31:30.668Z,51.10
2019-04-04T20:36:32.385Z,51.27
2019-04-04T20:41:34.090Z,51.54
2019-04-04T20:46:36.724Z,51.52
2019-04-04T20:51:38.306Z,51.62
2019-04-04T20:56:40.027Z,51.96
2019-04-04T21:01:41.742Z,51.89
2019-04-04T21:06:43.508Z,52.19
2019-04-04T21:11:45.102Z,52.34
2019-04-04T21:16:46.702Z,52.69
2019-04-04T21:21:48.429Z,52.47
2019-04-04T21:26:50.001Z,52.55
2019-04-04T21:31:51.654Z,52.76
2019-04-04T21:36:53.409Z,52.94
2019-04-04T21:41:55.014Z,53.73
2019-04-04T21:46:56.725Z,53.65
2019-04-04T21:51:58.692Z,53.92
2019-04-04T21:57:00.404Z,53.66
2019-04-04T22:02:02.608Z,53.93
2019-04-04T22:07:04.423Z,54.21
2019-04-04T22:12:05.965Z,54.25
2019-04-04T22:17:07.566Z,54.54
2019-04-04T22:22:09.227Z,54.60
2019-04-04T22:27:10.956Z,54.95
2019-04-04T22:32:12.488Z,55.28
2019-04-04T22:37:14.069Z,55.32
2019-04-04T22:42:15.718Z,55.47
2019-04-04T22:47:17.363Z,55.76
2019-04-04T22:58:03.528Z,56.38
2019-04-04T23:03:06.427Z,56.62
2019-04-04T23:08:08.001Z,56.85
2019-04-04T23:13:09.675Z,56.72
2019-04-04T23:18:11.240Z,56.87
2019-04-04T23:23:12.995Z,56.91
2019-04-04T23:28:14.561Z,57.15
2019-04-04T23:33:16.131Z,57.30
2019-04-04T23:38:17.828Z,57.52
2019-04-04T23:43:19.378Z,57.61
2019-04-04T23:48:20.964Z,57.71
2019-04-04T23:53:22.530Z,57.97
2019-04-04T23:58:24.099Z,57.96
